Time;durP1;ratioP1;P1;durP2;ratioP2;P2;SDS_P1;SDS_P2;PMS_P1;PMS_P2;Temp;Humidity;BMP_temperature;BMP_pressure;BME280_temperature;BME280_humidity;BME280_pressure;Samples;Min_cycle;Max_cycle;Signal;HPM_P1;HPM_P2
2024/03/25 00:00:11;;;;;;;4.60;1.17;;;;;;;8.89;60.48;99276.53;10397933;28;20076;-64
2024/03/25 00:05:11;;;;;;;3.28;1.15;;;;;;;8.96;60.25;99283.00;10410452;28;20073;-64
2024/03/25 00:10:12;;;;;;;3.38;0.80;;;;;;;8.95;60.81;99281.31;10412609;28;20546;-65
2024/03/25 00:15:12;;;;;;;2.75;0.73;;;;;;;8.88;60.21;99290.78;10419221;28;20659;-64
2024/03/25 00:20:14;;;;;;;3.28;0.90;;;;;;;8.83;60.38;99291.19;10395819;28;20166;-65
2024/03/25 00:25:16;;;;;;;2.63;0.90;;;;;;;8.75;60.48;99285.75;10410868;28;20091;-65
2024/03/25 00:30:19;;;;;;;1.92;0.93;;;;;;;8.82;60.49;99281.53;10410569;28;20699;-66
2024/03/25 00:35:19;;;;;;;3.25;0.98;;;;;;;8.74;60.07;99285.88;10409334;28;20125;-65
2024/03/25 00:40:20;;;;;;;6.80;1.13;;;;;;;8.66;60.24;99283.88;10393640;28;20045;-64
2024/03/25 00:45:20;;;;;;;6.38;1.23;;;;;;;8.72;61.15;99286.00;10412662;28;20184;-65
2024/03/25 00:50:21;;;;;;;3.40;1.30;;;;;;;8.73;61.60;99292.97;10394267;28;20156;-65
2024/03/25 00:55:22;;;;;;;3.70;1.13;;;;;;;8.66;61.92;99287.38;10410490;28;20098;-64
2024/03/25 01:00:22;;;;;;;3.85;1.27;;;;;;;8.78;62.25;99296.09;10393910;28;20049;-64
2024/03/25 01:05:22;;;;;;;4.13;1.15;;;;;;;8.73;61.37;99292.97;10396185;28;20064;-70
2024/03/25 01:10:23;;;;;;;3.97;1.10;;;;;;;8.63;61.71;99284.16;10423538;28;20068;-64
2024/03/25 01:15:23;;;;;;;3.40;1.58;;;;;;;8.51;62.43;99279.91;10405446;28;20052;-66
2024/03/25 01:20:24;;;;;;;7.03;2.47;;;;;;;8.64;63.01;99289.31;10417215;28;20122;-65
2024/03/25 01:25:25;;;;;;;4.72;1.30;;;;;;;8.55;62.80;99273.38;10395688;28;20060;-64
2024/03/25 01:30:29;;;;;;;7.30;1.53;;;;;;;8.51;62.48;99275.44;10409043;28;20131;-64
2024/03/25 01:35:30;;;;;;;3.95;1.83;;;;;;;8.49;63.08;99278.22;10390247;28;20127;-64
2024/03/25 01:40:30;;;;;;;3.83;1.88;;;;;;;8.51;63.48;99285.22;10416151;28;20080;-63
2024/03/25 01:45:34;;;;;;;5.10;1.25;;;;;;;8.55;64.60;99290.13;10388493;28;20132;-65
2024/03/25 01:50:37;;;;;;;5.60;1.25;;;;;;;8.51;65.63;99290.53;10421183;28;20135;-64
2024/03/25 01:55:39;;;;;;;4.82;1.52;;;;;;;8.52;64.63;99289.56;10421338;28;20076;-65
2024/03/25 02:00:39;;;;;;;4.10;1.20;;;;;;;8.49;64.06;99296.78;10411344;28;20120;-65
2024/03/25 02:05:40;;;;;;;7.35;1.23;;;;;;;8.48;64.15;99300.44;10405819;28;20433;-64
2024/03/25 02:10:41;;;;;;;4.88;1.70;;;;;;;8.50;64.54;99287.03;10395955;28;20041;-65
2024/03/25 02:15:42;;;;;;;6.57;2.38;;;;;;;8.47;63.04;99292.63;10409607;28;20709;-65
2024/03/25 02:20:43;;;;;;;7.65;1.42;;;;;;;8.36;63.25;99285.56;10421067;28;20059;-64
2024/03/25 02:25:43;;;;;;;5.93;1.83;;;;;;;8.35;63.88;99289.19;10416707;28;20045;-64
2024/03/25 02:30:44;;;;;;;6.35;2.17;;;;;;;8.25;63.98;99294.44;10411484;28;20057;-63
2024/03/25 02:35:46;;;;;;;9.10;2.25;;;;;;;8.29;63.88;99295.84;10394410;28;20065;-65
2024/03/25 02:40:47;;;;;;;3.53;1.60;;;;;;;8.11;63.33;99282.38;10408459;28;20128;-66
2024/03/25 02:45:47;;;;;;;8.52;2.60;;;;;;;8.12;63.34;99278.75;10414385;28;20782;-64
2024/03/25 02:50:47;;;;;;;4.63;1.30;;;;;;;7.81;63.57;99269.94;10424333;28;20139;-64
2024/03/25 02:55:48;;;;;;;4.03;1.25;;;;;;;7.83;64.17;99275.09;10409760;28;20143;-64
2024/03/25 03:00:48;;;;;;;6.75;1.70;;;;;;;7.97;63.56;99285.34;10414712;28;20052;-64
2024/03/25 03:05:49;;;;;;;4.45;1.67;;;;;;;8.07;63.53;99304.78;10408927;28;20056;-63
2024/03/25 03:10:49;;;;;;;3.97;1.20;;;;;;;7.99;63.53;99299.31;10377368;28;20148;-66
2024/03/25 03:15:50;;;;;;;4.00;1.50;;;;;;;8.07;63.37;99303.97;10379939;28;20068;-65
2024/03/25 03:20:50;;;;;;;3.70;1.40;;;;;;;8.02;63.54;99295.59;10388481;28;20064;-65
2024/03/25 03:25:51;;;;;;;3.40;1.30;;;;;;;7.96;64.96;99310.19;10401616;28;20068;-65
2024/03/25 03:30:51;;;;;;;3.58;1.33;;;;;;;7.93;65.60;99310.44;10407577;28;20045;-65
2024/03/25 03:35:52;;;;;;;4.20;2.60;;;;;;;8.06;66.15;99312.88;10411137;28;20041;-65
2024/03/25 03:41:00;;;;;;;5.00;1.40;;;;;;;8.09;64.01;99312.63;10407437;28;20627;-65
2024/03/25 03:46:02;;;;;;;3.67;1.75;;;;;;;8.07;64.45;99323.34;10405080;28;20143;-65
2024/03/25 03:51:02;;;;;;;3.67;1.58;;;;;;;8.16;64.35;99316.44;10390016;28;20753;-65
2024/03/25 03:56:07;;;;;;;5.47;2.10;;;;;;;8.08;63.37;99314.44;10406078;28;20110;-64
2024/03/25 04:01:17;;;;;;;3.55;1.77;;;;;;;7.89;63.25;99309.84;10411358;28;20132;-65
2024/03/25 04:06:18;;;;;;;4.65;1.75;;;;;;;7.99;64.28;99315.22;10409789;28;20129;-65
2024/03/25 04:11:18;;;;;;;7.82;1.63;;;;;;;8.01;63.70;99310.63;10385730;28;20044;-65
2024/03/25 04:16:19;;;;;;;8.50;2.55;;;;;;;7.67;63.23;99321.44;10406351;28;20707;-64
2024/03/25 04:21:19;;;;;;;5.57;1.60;;;;;;;7.72;64.59;99318.38;10406963;28;20047;-66
2024/03/25 04:26:20;;;;;;;6.78;1.52;;;;;;;7.82;64.94;99307.84;10409721;28;20049;-63
2024/03/25 04:31:21;;;;;;;5.78;2.15;;;;;;;7.84;64.47;99313.88;10391096;28;20069;-64
2024/03/25 04:36:21;;;;;;;5.68;2.13;;;;;;;7.88;64.37;99324.09;10405844;28;20049;-65
2024/03/25 04:41:22;;;;;;;7.93;2.22;;;;;;;7.86;64.91;99322.53;10396467;28;20652;-65
2024/03/25 04:46:22;;;;;;;7.35;2.05;;;;;;;7.77;63.93;99306.41;10419961;28;20072;-66
2024/03/25 04:51:23;;;;;;;6.32;2.10;;;;;;;7.74;63.97;99305.84;10411502;28;20046;-64
2024/03/25 04:56:23;;;;;;;5.10;1.77;;;;;;;7.73;64.16;99302.38;10403270;28;20044;-63
2024/03/25 05:01:24;;;;;;;7.53;3.00;;;;;;;7.60;63.59;99314.94;10420694;28;20890;-64
2024/03/25 05:06:26;;;;;;;6.63;2.50;;;;;;;7.55;64.58;99323.28;10405765;28;20140;-64
2024/03/25 05:11:26;;;;;;;6.93;1.90;;;;;;;7.48;64.26;99310.69;10417221;28;20227;-64
2024/03/25 05:16:27;;;;;;;4.38;1.92;;;;;;;7.51;63.65;99331.59;10410084;28;20049;-65
2024/03/25 05:21:27;;;;;;;5.22;1.60;;;;;;;7.39;64.26;99326.34;10383688;28;20101;-64
2024/03/25 05:26:29;;;;;;;4.38;1.65;;;;;;;7.56;64.54;99345.28;10385891;28;20129;-65
2024/03/25 05:31:30;;;;;;;6.05;1.80;;;;;;;7.46;63.86;99355.81;10402886;28;20053;-65
2024/03/25 05:36:31;;;;;;;7.15;1.80;;;;;;;7.43;63.96;99341.00;10409853;28;20591;-65
2024/03/25 05:41:31;;;;;;;6.05;2.55;;;;;;;7.53;63.71;99356.16;10416966;28;20044;-64
2024/03/25 05:46:32;;;;;;;4.40;1.77;;;;;;;7.53;63.79;99366.75;10381901;28;20055;-65
2024/03/25 05:51:33;;;;;;;5.82;1.52;;;;;;;7.53;63.82;99366.75;10380396;28;20598;-65
2024/03/25 05:56:34;;;;;;;5.75;2.42;;;;;;;7.60;63.71;99370.56;10353800;28;20129;-66
2024/03/25 06:01:37;;;;;;;6.32;2.03;;;;;;;7.55;63.91;99375.38;10355523;28;20166;-64
2024/03/25 06:06:38;;;;;;;4.40;1.90;;;;;;;7.67;63.13;99374.41;10394322;28;20160;-64
2024/03/25 06:11:38;;;;;;;10.55;2.55;;;;;;;7.74;63.09;99370.25;10401906;28;20604;-64
2024/03/25 06:16:39;;;;;;;9.95;3.03;;;;;;;7.59;63.25;99382.13;10407108;28;20113;-65
2024/03/25 06:21:39;;;;;;;5.22;2.05;;;;;;;7.69;63.36;99372.47;10412168;28;20045;-64
2024/03/25 06:26:40;;;;;;;9.00;2.45;;;;;;;7.82;62.41;99376.72;10407139;28;21027;-64
2024/03/25 06:37:01;;;;;;;11.63;2.78;;;;;;;8.10;61.49;99389.34;10405445;28;20161;-65
2024/03/25 06:42:02;;;;;;;6.60;3.08;;;;;;;8.17;61.36;99402.94;10395666;28;20057;-65
2024/03/25 06:47:03;;;;;;;3.97;1.60;;;;;;;8.25;61.38;99400.47;10395322;28;20128;-64
2024/03/25 06:52:06;;;;;;;12.48;3.88;;;;;;;8.34;62.28;99367.03;10401105;28;20120;-65
2024/03/25 06:57:06;;;;;;;11.82;3.25;;;;;;;8.65;60.66;99404.25;10385856;28;20136;-66
2024/03/25 07:02:08;;;;;;;14.93;12.25;;;;;;;8.72;60.17;99407.19;10392848;28;20080;-65
2024/03/25 07:07:20;;;;;;;5.38;4.80;;;;;;;8.73;59.49;99396.44;10342531;28;20060;-68
2024/03/25 07:12:21;;;;;;;29.90;27.38;;;;;;;8.80;60.00;99399.44;10375737;28;20125;-66
2024/03/25 07:17:21;;;;;;;5.38;2.20;;;;;;;8.83;59.33;99397.34;10404365;28;20059;-65
2024/03/25 07:22:21;;;;;;;6.90;2.40;;;;;;;9.01;58.18;99408.16;10437410;28;20056;-64
2024/03/25 07:27:22;;;;;;;6.55;2.45;;;;;;;9.10;57.97;99411.84;10391331;28;20139;-65
2024/03/25 07:32:22;;;;;;;5.85;2.47;;;;;;;9.03;57.27;99406.22;10391108;28;20053;-64
2024/03/25 07:37:24;;;;;;;9.15;2.78;;;;;;;9.30;58.41;99411.91;10387890;28;20057;-66
2024/03/25 07:42:24;;;;;;;10.57;3.20;;;;;;;9.66;57.36;99417.56;10421528;28;20141;-65
2024/03/25 07:47:26;;;;;;;8.15;2.40;;;;;;;9.59;56.33;99421.72;10408400;28;20080;-64
2024/03/25 07:52:27;;;;;;;7.00;2.72;;;;;;;9.66;56.76;99406.94;10417513;28;20125;-65
2024/03/25 07:57:27;;;;;;;9.48;2.20;;;;;;;9.93;56.22;99416.88;10404153;28;20211;-64
2024/03/25 08:02:29;;;;;;;7.80;1.92;;;;;;;9.95;54.80;99411.41;10395983;28;20614;-65
2024/03/25 08:07:29;;;;;;;9.45;2.75;;;;;;;10.02;55.30;99423.16;10408054;28;20095;-64
2024/03/25 08:12:29;;;;;;;12.02;3.58;;;;;;;10.04;54.51;99426.53;10394179;28;20063;-65
2024/03/25 08:17:30;;;;;;;7.18;2.15;;;;;;;10.12;54.20;99413.38;10405022;28;20057;-65
2024/03/25 08:22:31;;;;;;;9.38;2.50;;;;;;;10.16;54.23;99397.97;10389199;28;20077;-64
2024/03/25 08:27:31;;;;;;;5.90;1.95;;;;;;;10.79;53.56;99416.91;10397032;28;20079;-65
2024/03/25 08:32:32;;;;;;;5.40;1.38;;;;;;;11.14;51.66;99411.88;10405332;28;20072;-64
2024/03/25 08:37:34;;;;;;;7.57;2.05;;;;;;;11.18;51.11;99405.22;10411105;28;20131;-65
2024/03/25 08:42:34;;;;;;;7.68;2.53;;;;;;;11.27;50.12;99407.03;10407142;28;20139;-64
2024/03/25 08:47:38;;;;;;;3.65;1.30;;;;;;;11.41;48.33;99407.47;10365664;28;20149;-65
2024/03/25 08:52:39;;;;;;;6.05;2.03;;;;;;;11.86;47.18;99406.63;10371391;28;20202;-66
2024/03/25 08:57:40;;;;;;;4.40;1.40;;;;;;;12.10;47.87;99400.72;10422849;28;20166;-64
2024/03/25 09:02:40;;;;;;;6.20;1.95;;;;;;;12.12;47.02;99395.22;10406294;28;20049;-66
2024/03/25 09:07:41;;;;;;;4.93;1.63;;;;;;;12.40;47.14;99387.06;10384594;28;20059;-65
2024/03/25 09:12:42;;;;;;;9.07;2.15;;;;;;;12.55;47.02;99397.03;10417838;28;20115;-65
2024/03/25 09:17:42;;;;;;;5.70;1.13;;;;;;;12.82;43.92;99391.66;10372561;28;20052;-65
2024/03/25 09:22:44;;;;;;;6.70;1.70;;;;;;;12.86;42.90;99390.34;10383628;28;20638;-66
2024/03/25 09:27:48;;;;;;;4.22;1.55;;;;;;;12.62;44.68;99373.19;10412345;28;20229;-66
2024/03/25 09:32:49;;;;;;;3.22;1.27;;;;;;;12.83;44.41;99390.66;10385314;28;20132;-66
2024/03/25 09:37:49;;;;;;;6.20;1.25;;;;;;;13.29;43.47;99383.19;10351792;28;20087;-66
2024/03/25 09:42:56;;;;;;;4.57;1.50;;;;;;;13.45;43.79;99369.06;10385965;28;20080;-65
2024/03/25 09:47:56;;;;;;;4.22;1.77;;;;;;;13.58;43.16;99368.56;10384007;28;20335;-68
2024/03/25 09:52:58;;;;;;;4.60;1.52;;;;;;;14.06;41.61;99361.56;10418290;28;20643;-66
2024/03/25 09:57:59;;;;;;;6.57;1.70;;;;;;;14.41;41.29;99353.34;10400834;28;20044;-65
2024/03/25 10:02:59;;;;;;;18.98;3.28;;;;;;;14.80;39.01;99342.72;10374133;28;21335;-65
2024/03/25 10:08:00;;;;;;;5.95;1.20;;;;;;;15.01;37.71;99336.78;10403759;28;20117;-65
2024/03/25 10:13:01;;;;;;;7.68;1.63;;;;;;;15.27;37.09;99337.50;10354568;28;20080;-64
2024/03/25 10:18:02;;;;;;;5.50;1.20;;;;;;;15.53;36.12;99321.88;10383509;28;20112;-63
2024/03/25 10:23:04;;;;;;;6.60;1.42;;;;;;;16.33;35.24;99310.84;10425770;28;20045;-64
2024/03/25 10:28:05;;;;;;;4.43;0.90;;;;;;;16.40;35.33;99304.53;10419010;28;20175;-65
2024/03/25 10:33:06;;;;;;;7.13;1.90;;;;;;;16.40;34.77;99295.66;10393800;28;20104;-64
2024/03/25 10:38:12;;;;;;;4.28;1.15;;;;;;;16.22;34.94;99282.59;10408323;28;20071;-63
2024/03/25 10:43:17;;;;;;;6.45;1.83;;;;;;;17.18;34.01;99282.63;10397812;28;20412;-68
2024/03/25 10:48:30;;;;;;;4.28;1.65;;;;;;;17.71;31.30;99278.78;10405448;28;20152;-65
2024/03/25 10:53:35;;;;;;;4.53;0.90;;;;;;;17.61;31.99;99274.56;10406425;28;20196;-66
2024/03/25 10:58:36;;;;;;;4.90;1.27;;;;;;;17.79;31.99;99251.72;10401632;28;20137;-66
2024/03/25 11:03:37;;;;;;;7.90;2.72;;;;;;;17.88;31.91;99255.09;10409766;28;20736;-67
2024/03/25 11:08:38;;;;;;;15.90;14.40;;;;;;;18.81;30.24;99263.78;10408477;28;20128;-67
2024/03/25 11:13:39;;;;;;;7.25;1.98;;;;;;;19.07;31.74;99251.44;10390312;28;20164;-67
2024/03/25 11:18:51;;;;;;;3.92;1.35;;;;;;;19.33;28.87;99253.34;10394110;28;20063;-65
2024/03/25 11:23:51;;;;;;;4.90;1.02;;;;;;;19.28;29.44;99223.47;10413553;28;20068;-67
2024/03/25 11:28:53;;;;;;;3.53;1.35;;;;;;;19.56;29.70;99238.63;10411801;28;20117;-67
2024/03/25 11:33:59;;;;;;;12.07;7.20;;;;;;;19.36;30.35;99225.13;10374578;28;20190;-66
2024/03/25 11:39:09;;;;;;;4.97;1.58;;;;;;;17.78;31.45;99217.78;10405918;28;20140;-65
2024/03/25 11:44:12;;;;;;;5.18;1.20;;;;;;;17.25;32.70;99212.75;10385365;28;20172;-66
2024/03/25 11:49:15;;;;;;;5.32;1.42;;;;;;;18.34;31.33;99206.13;10406074;28;20132;-66
2024/03/25 11:54:15;;;;;;;4.25;1.45;;;;;;;19.29;28.45;99190.06;10394729;28;20540;-65
2024/03/25 11:59:16;;;;;;;6.93;1.60;;;;;;;20.51;27.15;99183.44;10395684;28;20056;-66
2024/03/25 12:04:18;;;;;;;4.32;1.20;;;;;;;20.71;27.58;99176.09;10370916;28;20045;-67
2024/03/25 12:14:38;;;;;;;3.95;1.08;;;;;;;23.14;24.34;99163.50;10418476;28;20194;-66
2024/03/25 12:19:41;;;;;;;4.82;1.55;;;;;;;23.85;23.59;99155.44;10405324;28;20061;-67
2024/03/25 12:24:41;;;;;;;5.00;1.13;;;;;;;25.13;21.64;99145.47;10402949;28;20549;-68
2024/03/25 12:29:42;;;;;;;2.80;1.30;;;;;;;26.16;19.79;99133.44;10410571;28;20076;-66
2024/03/25 12:34:43;;;;;;;4.23;1.40;;;;;;;26.86;19.84;99122.75;10410777;28;20461;-66
2024/03/25 12:39:47;;;;;;;5.85;1.17;;;;;;;29.44;17.37;99104.53;10352308;28;20395;-66
2024/03/25 12:44:49;;;;;;;3.85;1.02;;;;;;;32.47;15.55;99097.13;10366458;28;20148;-67
2024/03/25 12:49:49;;;;;;;4.20;1.40;;;;;;;33.53;13.51;99087.47;10418753;28;20156;-66
2024/03/25 12:54:50;;;;;;;4.43;0.95;;;;;;;32.04;14.18;99090.50;10414148;28;20048;-67
2024/03/25 12:59:50;;;;;;;3.90;1.00;;;;;;;32.90;13.59;99072.28;10369174;28;20069;-67
2024/03/25 13:04:51;;;;;;;5.03;0.90;;;;;;;34.13;12.93;99058.97;10367823;28;20133;-65
2024/03/25 13:09:51;;;;;;;2.90;0.90;;;;;;;34.78;11.87;99062.50;10372118;28;20049;-65
2024/03/25 13:14:54;;;;;;;4.80;1.33;;;;;;;34.23;12.42;99046.88;10371265;28;20148;-66
2024/03/25 13:19:54;;;;;;;;;;;;;;;34.73;11.36;99043.25;10406556;28;20367;-67
2024/03/25 13:24:55;;;;;;;5.40;1.65;;;;;;;34.28;12.48;99037.69;10404133;28;19937;-66
2024/03/25 13:29:57;;;;;;;4.23;0.90;;;;;;;33.26;13.03;99030.34;10398729;28;20068;-66
2024/03/25 13:34:58;;;;;;;4.95;1.17;;;;;;;30.94;13.83;99008.59;10408540;28;20724;-67
2024/03/25 13:39:58;;;;;;;4.73;0.80;;;;;;;27.82;17.27;98993.41;10415939;28;20056;-66
2024/03/25 13:45:00;;;;;;;2.93;0.87;;;;;;;25.60;17.96;98992.59;10400666;28;20050;-66
2024/03/25 13:50:02;;;;;;;3.38;0.98;;;;;;;24.43;19.40;98987.78;10392056;28;20049;-65
2024/03/25 13:55:04;;;;;;;2.95;0.80;;;;;;;23.37;19.49;98985.41;10402919;28;20053;-65
2024/03/25 14:00:08;;;;;;;3.60;1.23;;;;;;;23.06;20.79;98976.56;10378940;28;20068;-66
2024/03/25 14:05:10;;;;;;;3.15;0.82;;;;;;;22.11;20.91;98965.53;10385364;28;20568;-64
2024/03/25 14:10:11;;;;;;;5.03;1.03;;;;;;;21.68;21.73;98961.13;10379743;28;20050;-66
2024/03/25 14:15:12;;;;;;;5.10;1.38;;;;;;;21.02;22.69;98947.25;10384652;28;20139;-67
2024/03/25 14:20:21;;;;;;;4.75;1.30;;;;;;;20.88;23.81;98951.94;10367509;28;20041;-67
2024/03/25 14:25:23;;;;;;;5.78;1.50;;;;;;;20.47;24.77;98946.03;10386194;28;20099;-65
2024/03/25 14:30:24;;;;;;;3.75;1.00;;;;;;;20.17;25.46;98937.72;10365530;28;20044;-65
2024/03/25 14:35:25;;;;;;;2.78;1.08;;;;;;;19.88;26.10;98925.66;10405979;28;20510;-65
2024/03/25 14:40:27;;;;;;;7.72;2.72;;;;;;;19.41;25.56;98942.88;10412997;28;20068;-67
2024/03/25 14:45:29;;;;;;;2.63;0.70;;;;;;;19.04;26.65;98926.38;10379251;28;20100;-65
2024/03/25 14:50:29;;;;;;;4.65;1.17;;;;;;;18.79;26.26;98912.69;10410039;28;20088;-66
2024/03/25 14:55:30;;;;;;;4.85;1.00;;;;;;;18.38;26.76;98894.91;10410938;28;20049;-66
2024/03/25 15:00:30;;;;;;;3.83;1.15;;;;;;;18.07;28.10;98882.88;10412823;28;20558;-65
2024/03/25 15:05:32;;;;;;;1.63;0.40;;;;;;;17.37;24.81;98903.75;10389641;28;20171;-65
2024/03/25 15:10:35;;;;;;;14.88;2.22;;;;;;;17.22;27.38;98880.56;10395685;28;20536;-68
2024/03/25 15:15:39;;;;;;;6.53;1.00;;;;;;;16.92;26.80;98864.69;10404444;28;20254;-66
2024/03/25 15:20:40;;;;;;;2.92;0.50;;;;;;;16.60;27.84;98866.09;10360430;28;20141;-66
2024/03/25 15:25:40;;;;;;;2.40;0.45;;;;;;;16.50;28.12;98861.09;10383274;28;20067;-66
2024/03/25 15:30:42;;;;;;;3.10;0.90;;;;;;;16.35;28.29;98854.97;10399887;28;20108;-67
2024/03/25 15:35:42;;;;;;;3.17;0.73;;;;;;;16.16;27.46;98846.56;10384649;28;20538;-66
2024/03/25 15:40:51;;;;;;;3.95;1.00;;;;;;;15.88;27.33;98842.03;10393306;28;20046;-65
2024/03/25 15:46:00;;;;;;;3.42;0.80;;;;;;;15.74;28.19;98835.66;10403193;28;20124;-67
2024/03/25 15:51:02;;;;;;;3.80;0.60;;;;;;;15.54;26.39;98814.00;10415587;28;20076;-67
2024/03/25 15:56:04;;;;;;;2.65;0.60;;;;;;;15.28;27.90;98809.19;10413959;28;20127;-67
2024/03/25 16:01:06;;;;;;;2.75;0.70;;;;;;;15.29;28.17;98800.13;10401445;28;20215;-67
2024/03/25 16:06:07;;;;;;;2.95;0.63;;;;;;;15.20;27.93;98802.06;10401826;28;20151;-66
2024/03/25 16:11:17;;;;;;;2.67;0.55;;;;;;;15.10;28.45;98801.56;10407916;28;20136;-65
2024/03/25 16:16:19;;;;;;;4.55;0.80;;;;;;;15.08;28.75;98797.41;10386139;28;20352;-67
2024/03/25 16:21:23;;;;;;;1.80;0.47;;;;;;;14.99;28.47;98799.38;10386692;28;20136;-67
2024/03/25 16:26:25;;;;;;;1.80;0.40;;;;;;;14.90;27.77;98808.53;10408745;28;20180;-67
2024/03/25 16:31:25;;;;;;;2.70;0.50;;;;;;;14.73;27.21;98799.88;10391010;28;20139;-65
2024/03/25 16:36:29;;;;;;;2.80;0.40;;;;;;;14.55;28.13;98774.25;10409586;28;20121;-66
2024/03/25 16:41:29;;;;;;;2.53;0.32;;;;;;;14.39;28.21;98777.13;10411960;28;20064;-65
2024/03/25 16:46:30;;;;;;;4.00;0.52;;;;;;;14.33;27.92;98767.97;10413073;28;20052;-66
2024/03/25 16:51:30;;;;;;;0.90;0.45;;;;;;;14.24;28.13;98766.41;10413182;28;20120;-66
2024/03/25 16:56:31;;;;;;;3.08;0.70;;;;;;;14.13;29.18;98751.66;10407040;28;20153;-66
2024/03/25 17:01:31;;;;;;;1.47;0.47;;;;;;;14.09;28.53;98756.50;10414030;28;20053;-66
2024/03/25 17:06:31;;;;;;;2.08;0.50;;;;;;;13.92;29.24;98747.00;10396159;28;20327;-64
2024/03/25 17:11:32;;;;;;;2.85;0.77;;;;;;;13.93;29.92;98743.28;10417042;28;20444;-67
2024/03/25 17:16:33;;;;;;;2.03;0.60;;;;;;;13.84;29.74;98760.44;10411233;28;20044;-67
2024/03/25 17:21:34;;;;;;;1.63;0.60;;;;;;;13.76;30.33;98754.16;10398797;28;20048;-67
2024/03/25 17:26:34;;;;;;;1.80;0.68;;;;;;;13.69;30.46;98755.06;10415106;28;22338;-67
2024/03/25 17:31:35;;;;;;;2.92;0.82;;;;;;;13.57;30.26;98749.28;10410329;28;20049;-66
2024/03/25 17:36:35;;;;;;;3.40;0.60;;;;;;;13.40;30.93;98735.25;10406726;28;20045;-66
2024/03/25 17:41:36;;;;;;;1.42;0.50;;;;;;;13.38;31.63;98740.75;10394008;28;20075;-65
2024/03/25 17:46:36;;;;;;;4.75;1.23;;;;;;;13.24;31.98;98725.47;10389165;28;20046;-67
2024/03/25 17:51:37;;;;;;;4.30;2.15;;;;;;;13.27;33.35;98741.16;10361570;28;20546;-66
2024/03/25 17:56:37;;;;;;;4.80;2.80;;;;;;;13.18;34.73;98737.72;10369348;28;20111;-67
2024/03/25 18:01:38;;;;;;;4.72;2.58;;;;;;;13.09;35.39;98733.44;10400159;28;20075;-66
2024/03/25 18:06:38;;;;;;;4.95;2.60;;;;;;;13.07;35.96;98736.25;10371753;28;20132;-67
2024/03/25 18:11:38;;;;;;;6.63;2.83;;;;;;;12.87;36.23;98716.38;10404111;28;20095;-66
2024/03/25 18:16:39;;;;;;;4.78;2.30;;;;;;;12.88;36.52;98715.34;10407277;28;20744;-67
2024/03/25 18:21:39;;;;;;;8.15;3.15;;;;;;;12.79;36.52;98711.91;10415491;28;20091;-67
2024/03/25 18:26:41;;;;;;;5.43;3.10;;;;;;;12.71;36.85;98711.94;10408864;28;20140;-69
2024/03/25 18:31:41;;;;;;;5.13;1.87;;;;;;;12.58;37.03;98714.34;10395806;28;20053;-66
2024/03/25 18:36:44;;;;;;;2.70;1.10;;;;;;;12.39;37.71;98711.09;10364273;28;20380;-67
2024/03/25 18:41:44;;;;;;;4.18;1.15;;;;;;;12.47;37.86;98712.88;10409044;28;20179;-65
2024/03/25 18:46:45;;;;;;;3.90;1.73;;;;;;;12.34;37.86;98714.28;10404086;28;20061;-67
2024/03/25 18:51:46;;;;;;;5.35;2.30;;;;;;;12.26;38.21;98714.28;10371225;28;20119;-66
2024/03/25 18:56:47;;;;;;;5.93;2.80;;;;;;;12.22;38.22;98710.31;10407072;28;20148;-68
2024/03/25 19:01:47;;;;;;;5.80;2.13;;;;;;;12.15;38.44;98694.16;10391375;28;20968;-66
2024/03/25 19:06:48;;;;;;;6.13;1.95;;;;;;;11.96;38.26;98670.56;10377775;28;20874;-65
2024/03/25 19:11:48;;;;;;;2.47;1.52;;;;;;;12.00;38.67;98694.03;10413371;28;20049;-67
2024/03/25 19:16:48;;;;;;;4.85;1.58;;;;;;;11.94;38.78;98692.06;10410244;28;20076;-65
2024/03/25 19:21:50;;;;;;;3.50;1.58;;;;;;;11.85;38.26;98682.38;10408872;28;20526;-61
2024/03/25 19:26:51;;;;;;;3.80;1.80;;;;;;;11.77;38.43;98693.03;10408080;28;20148;-61
2024/03/25 19:31:51;;;;;;;3.33;1.50;;;;;;;11.66;38.31;98691.56;10397794;28;20040;-62
2024/03/25 19:36:52;;;;;;;2.75;1.88;;;;;;;11.60;39.28;98690.41;10390060;28;20048;-61
2024/03/25 19:41:53;;;;;;;2.75;1.70;;;;;;;11.50;38.71;98679.13;10402209;28;20567;-61
2024/03/25 19:46:54;;;;;;;5.10;2.05;;;;;;;11.45;39.17;98673.44;10402756;28;20045;-61
2024/03/25 19:51:54;;;;;;;3.88;2.00;;;;;;;11.42;39.41;98671.13;10407809;28;20057;-62
2024/03/25 19:56:55;;;;;;;3.83;2.13;;;;;;;11.37;39.54;98668.13;10406478;28;20303;-63
2024/03/25 20:02:00;;;;;;;5.13;3.03;;;;;;;11.32;40.70;98668.63;10404258;28;20056;-66
2024/03/25 20:07:01;;;;;;;5.03;2.65;;;;;;;11.22;40.67;98671.44;10406323;28;20068;-64
2024/03/25 20:12:02;;;;;;;3.33;2.20;;;;;;;11.20;40.64;98662.81;10422729;28;20073;-63
2024/03/25 20:17:02;;;;;;;3.75;2.15;;;;;;;11.15;41.09;98659.78;10406750;28;20815;-62
2024/03/25 20:22:03;;;;;;;5.50;2.78;;;;;;;11.07;41.49;98657.13;10401265;28;20088;-63
2024/03/25 20:27:04;;;;;;;2.88;1.98;;;;;;;11.04;41.61;98652.16;10406151;28;20596;-62
2024/03/25 20:32:05;;;;;;;4.55;1.85;;;;;;;11.00;41.59;98645.47;10428680;28;20049;-61
2024/03/25 20:37:05;;;;;;;5.25;1.95;;;;;;;10.92;41.93;98633.81;10391755;28;20056;-63
2024/03/25 20:42:06;;;;;;;3.17;1.60;;;;;;;10.86;42.00;98639.00;10365025;28;20453;-62
2024/03/25 20:47:06;;;;;;;3.05;1.45;;;;;;;10.72;42.54;98638.63;10408678;28;20353;-61
2024/03/25 20:52:06;;;;;;;6.07;2.25;;;;;;;10.58;42.64;98629.47;10414894;28;20087;-61
2024/03/25 20:57:08;;;;;;;3.28;1.23;;;;;;;10.52;42.56;98615.97;10422557;28;20164;-63
2024/03/25 21:02:08;;;;;;;3.10;1.50;;;;;;;10.45;43.03;98605.16;10403990;28;20486;-62
2024/03/25 21:07:09;;;;;;;2.28;1.10;;;;;;;10.42;42.77;98606.31;10411110;28;20213;-62
2024/03/25 21:12:09;;;;;;;3.40;1.80;;;;;;;10.42;42.67;98600.19;10400281;28;20615;-63
2024/03/25 21:17:11;;;;;;;3.35;1.73;;;;;;;10.32;43.72;98604.78;10400434;28;20627;-60
2024/03/25 21:22:12;;;;;;;5.40;1.98;;;;;;;10.14;43.95;98573.78;10396378;28;20125;-61
2024/03/25 21:27:12;;;;;;;3.25;1.40;;;;;;;10.30;43.63;98596.09;10404614;28;20103;-63
2024/03/25 21:32:13;;;;;;;1.95;1.20;;;;;;;10.16;43.71;98587.75;10365351;28;20128;-62
2024/03/25 21:37:13;;;;;;;3.25;1.27;;;;;;;10.06;43.80;98577.25;10375953;28;20133;-62
2024/03/25 21:42:15;;;;;;;3.80;1.50;;;;;;;10.01;44.34;98581.41;10389776;28;20109;-60
2024/03/25 21:47:15;;;;;;;3.85;2.03;;;;;;;9.99;44.41;98572.75;10411248;28;20322;-62
2024/03/25 21:52:16;;;;;;;3.38;1.35;;;;;;;9.96;44.79;98563.28;10406571;28;20179;-61
2024/03/25 21:57:16;;;;;;;2.03;1.73;;;;;;;9.95;44.81;98563.44;10403250;28;20045;-60
2024/03/25 22:02:17;;;;;;;4.97;1.83;;;;;;;9.88;45.11;98566.75;10419170;28;20055;-61
2024/03/25 22:07:17;;;;;;;4.93;1.63;;;;;;;9.93;44.80;98562.78;10397195;28;20052;-62
2024/03/25 22:12:17;;;;;;;4.65;1.65;;;;;;;9.83;45.42;98555.78;10413336;28;20200;-61
2024/03/25 22:17:18;;;;;;;3.60;2.00;;;;;;;9.70;45.36;98552.72;10389914;28;20060;-62
2024/03/25 22:22:18;;;;;;;3.00;1.60;;;;;;;9.61;45.28;98543.03;10418008;28;20049;-62
2024/03/25 22:27:19;;;;;;;4.55;1.85;;;;;;;9.68;45.94;98549.38;10407146;28;20490;-61
2024/03/25 22:32:19;;;;;;;4.82;2.15;;;;;;;9.56;45.96;98540.84;10397535;28;20049;-62
2024/03/25 22:37:20;;;;;;;3.38;1.77;;;;;;;9.59;45.83;98550.34;10388876;28;20079;-61
2024/03/25 22:42:23;;;;;;;2.78;1.50;;;;;;;9.45;46.37;98546.44;10390342;28;20071;-61
2024/03/25 22:47:24;;;;;;;3.20;2.05;;;;;;;9.37;45.89;98536.63;10410491;28;20157;-62
2024/03/25 22:52:24;;;;;;;3.45;1.58;;;;;;;9.27;46.05;98526.09;10407801;28;20048;-61
2024/03/25 22:57:25;;;;;;;3.25;1.88;;;;;;;9.32;46.24;98541.56;10410893;28;20743;-61
2024/03/25 23:02:26;;;;;;;4.30;1.70;;;;;;;9.33;46.79;98529.94;10413748;28;20122;-62
2024/03/25 23:07:27;;;;;;;4.18;1.88;;;;;;;9.39;46.81;98524.00;10402717;28;20631;-61
2024/03/25 23:12:27;;;;;;;3.78;1.65;;;;;;;9.33;46.60;98524.66;10406575;28;20049;-63
2024/03/25 23:17:28;;;;;;;2.80;1.70;;;;;;;9.30;47.02;98519.66;10372171;28;20101;-63
2024/03/25 23:22:28;;;;;;;3.75;1.98;;;;;;;9.25;46.71;98506.84;10377314;28;20757;-61
2024/03/25 23:27:28;;;;;;;4.03;2.00;;;;;;;9.16;46.74;98503.31;10403514;28;20057;-61
2024/03/25 23:32:29;;;;;;;4.63;2.22;;;;;;;9.17;47.17;98506.78;10386705;28;20545;-61
2024/03/25 23:37:29;;;;;;;5.53;2.03;;;;;;;9.14;47.32;98499.13;10370799;28;20053;-62